Terminal Aerodrome Forecast
Issued by NWS Mobile, AL

Home | Current Version | Previous Version | Text Only | Print | Product List | Glossary On
Versions: 1 2 3 4 5 6 7 8 9 10 11 12 13 14 15 16 17 18 19 20 21 22 23 24 25 26 27 28
000
FTUS44 KMOB 182005 AAA
TAFPNS
TAF AMD
KPNS 182005Z 1820/1918 29006KT P6SM VCTS SCT040CB
      TEMPO 1820/1823 VRB15KT 3SM TSRA BR BKN025CB
     FM190100 VRB04KT P6SM SCT250=

USA.gov is the U.S. government's official web portal to all federal, state and local government web resources and services.